»·PEaware :: JP619 KSAN-KLAX

JP619 :: KSAN-KLAX

FLIGHT INFORMATION

Flight Status: Arrived
Operator: Unknown
More flights by this operator :: More flights under this callsign
Pilot: Jose P. (16600)
Aircraft: AIRBUS A330
(A330)
More flights by this aircraft type
Origin: KSAN San Diego Intl-Lindbergh
United States
Destination: KLAX Los Angeles Intl
United States
More flights between these airports :: More routes between these airports
Route:
File this flight plan on PilotEdge
Remarks: Sample flight plan
Altitude:
(Current/Filed)
8,000ft
Speed:
(Current/Filed)
115kts
Departed: 28-Sep-17 10:08 PM
Arrived: 28-Sep-17 10:46 PM
Distance/Time
Traveled:
95nm/0:37
Distance/Time
To Go:
Arrived

Flight Plot

Page will automatically refresh every two minutes.


Map Options




Map Legend


Flown Route
Filed Route
Departure Airport
Arrival Airport
Navaid (VOR, NDB)
Fix

Horizontal Profiles

Position Reports

Time Latitude Longitude Heading Altitude Ground
Speed
28-Sep-17 21:42 32.732878 -117.201709 86 23ft 0kts
28-Sep-17 21:43 32.732878 -117.201709 86 23ft 0kts
28-Sep-17 21:44 32.732878 -117.201709 86 23ft 0kts
28-Sep-17 21:45 32.732878 -117.201709 86 23ft 0kts
28-Sep-17 21:46 32.732878 -117.201709 86 23ft 0kts
28-Sep-17 21:51 32.732878 -117.201709 86 23ft 0kts
28-Sep-17 21:52 32.732878 -117.201709 86 23ft 0kts
28-Sep-17 21:53 32.732878 -117.201709 86 23ft 0kts
28-Sep-17 21:54 32.732878 -117.201709 86 23ft 0kts
28-Sep-17 21:55 32.732878 -117.201709 86 23ft 0kts
28-Sep-17 21:56 32.732878 -117.201709 86 23ft 0kts
28-Sep-17 21:57 32.732878 -117.201709 86 23ft 0kts
28-Sep-17 21:58 32.732878 -117.201709 86 23ft 0kts
28-Sep-17 21:59 32.732878 -117.201709 86 23ft 0kts
28-Sep-17 22:00 32.732878 -117.201709 86 23ft 0kts
28-Sep-17 22:01 32.732803 -117.202207 47 23ft 2kts
28-Sep-17 22:02 32.732492 -117.202317 348 23ft 0kts
28-Sep-17 22:03 32.732493 -117.202317 348 23ft 0kts
28-Sep-17 22:04 32.732493 -117.202317 348 23ft 0kts
28-Sep-17 22:05 32.732493 -117.202317 348 23ft 0kts
28-Sep-17 22:06 32.732493 -117.202317 348 23ft 0kts
28-Sep-17 22:07 32.732493 -117.202317 348 23ft 0kts
28-Sep-17 22:08 32.734273 -117.202625 15 23ft 6kts
28-Sep-17 22:09 32.735355 -117.202255 15 23ft 0kts
28-Sep-17 22:10 32.735781 -117.202116 15 23ft 5kts
28-Sep-17 22:11 32.736300 -117.201010 103 23ft 8kts
28-Sep-17 22:12 32.731214 -117.180419 107 182ft 157kts
28-Sep-17 22:13 32.720121 -117.139699 105 1505ft 222kts
28-Sep-17 22:14 32.729634 -117.071349 40 3140ft 262kts
28-Sep-17 22:15 32.779601 -117.093678 289 4166ft 267kts
28-Sep-17 22:16 32.803754 -117.173481 291 5133ft 274kts
28-Sep-17 22:17 32.830477 -117.259156 294 6144ft 279kts
28-Sep-17 22:18 32.880527 -117.331775 317 8566ft 294kts
28-Sep-17 22:19 32.943138 -117.397237 321 11002ft 319kts
28-Sep-17 22:20 33.017495 -117.471709 321 8640ft 341kts
28-Sep-17 22:21 33.083459 -117.537649 321 7987ft 285kts
28-Sep-17 22:22 33.131505 -117.585566 321 7991ft 285kts
28-Sep-17 22:23 33.197021 -117.637554 331 7992ft 284kts
28-Sep-17 22:24 33.264381 -117.681978 336 7992ft 283kts
28-Sep-17 22:25 33.324513 -117.715553 335 7987ft 284kts
28-Sep-17 22:26 33.396056 -117.755523 335 7978ft 286kts
28-Sep-17 22:27 33.469106 -117.791581 339 7968ft 288kts
28-Sep-17 22:28 33.541070 -117.824213 339 7964ft 289kts
28-Sep-17 22:29 33.607335 -117.855749 325 7956ft 289kts
28-Sep-17 22:30 33.631012 -117.938751 278 7849ft 284kts
28-Sep-17 22:31 33.637598 -118.031035 268 6469ft 284kts
28-Sep-17 22:32 33.635500 -118.124912 269 4488ft 279kts
28-Sep-17 22:33 33.633179 -118.215095 269 2476ft 263kts
28-Sep-17 22:34 33.631076 -118.285936 269 1836ft 251kts
28-Sep-17 22:35 33.628610 -118.383612 269 1850ft 250kts
28-Sep-17 22:36 33.637880 -118.463673 291 1839ft 250kts
28-Sep-17 22:37 33.663961 -118.541240 291 1827ft 252kts
28-Sep-17 22:38 33.686354 -118.606365 291 1815ft 254kts
28-Sep-17 22:39 33.737757 -118.674399 326 1777ft 232kts
28-Sep-17 22:40 33.787211 -118.699345 346 1771ft 180kts
28-Sep-17 22:41 33.834743 -118.698604 11 1815ft 167kts
28-Sep-17 22:42 33.869374 -118.684333 27 1774ft 159kts
28-Sep-17 22:43 33.900652 -118.648895 62 1768ft 158kts
28-Sep-17 22:44 33.916316 -118.600796 82 1356ft 155kts
28-Sep-17 22:45 33.921964 -118.549875 86 894ft 153kts
28-Sep-17 22:46 33.925015 -118.500346 86 700ft 154kts
28-Sep-17 22:47 33.929620 -118.460020 82 512ft 155kts
28-Sep-17 22:48 33.932946 -118.425309 83 174ft 148kts
28-Sep-17 22:49 33.935436 -118.400820 82 123ft 48kts
28-Sep-17 22:50 33.937293 -118.394410 84 113ft 0kts
28-Sep-17 22:51 33.937405 -118.394003 54 112ft 13kts
28-Sep-17 22:52 33.939644 -118.391662 82 111ft 21kts
28-Sep-17 22:53 33.940605 -118.391723 248 111ft 14kts
28-Sep-17 22:54 33.939957 -118.396539 263 115ft 18kts
28-Sep-17 22:55 33.939374 -118.402221 262 124ft 20kts
28-Sep-17 22:56 33.938867 -118.407463 275 131ft 11kts
28-Sep-17 22:57 33.940936 -118.408475 281 129ft 4kts
28-Sep-17 22:58 33.940888 -118.409263 262 129ft 0kts
28-Sep-17 22:59 33.940888 -118.409263 262 129ft 0kts
28-Sep-17 23:00 33.940888 -118.409263 262 129ft 0kts
28-Sep-17 23:01 33.940888 -118.409263 262 129ft 0kts

Navigation Log

Ident Type
1. KSAN Airport
2. KLAX Airport